Time;durP1;ratioP1;P1;durP2;ratioP2;P2;SDS_P1;SDS_P2;PMS_P1;PMS_P2;Temp;Humidity;BMP_temperature;BMP_pressure;BME280_temperature;BME280_humidity;BME280_pressure;Samples;Min_cycle;Max_cycle;Signal;HPM_P1;HPM_P2
2023/10/23 00:01:39;;;;;;;18.85;7.30;;;;;;;8.02;100.00;101155.53;5068202;28;20033;-75
2023/10/23 00:04:05;;;;;;;19.90;7.53;;;;;;;7.99;100.00;101153.75;5060851;28;20037;-74
2023/10/23 00:06:31;;;;;;;20.05;7.72;;;;;;;7.96;100.00;101156.28;5067758;28;20475;-75
2023/10/23 00:08:57;;;;;;;19.40;7.50;;;;;;;7.87;100.00;101155.22;5065073;28;20032;-74
2023/10/23 00:11:23;;;;;;;20.65;9.50;;;;;;;7.97;100.00;101160.69;5066297;28;20407;-75
2023/10/23 00:13:49;;;;;;;20.02;7.65;;;;;;;7.77;100.00;101164.69;5066162;28;20102;-75
2023/10/23 00:16:14;;;;;;;21.42;7.80;;;;;;;7.81;100.00;101172.66;5065059;28;20067;-75
2023/10/23 00:18:39;;;;;;;19.80;8.27;;;;;;;7.74;100.00;101168.13;5067112;28;20024;-75
2023/10/23 00:21:05;;;;;;;19.00;7.63;;;;;;;7.67;100.00;101161.88;5064404;28;20035;-75
2023/10/23 00:23:30;;;;;;;18.73;6.95;;;;;;;7.70;100.00;101165.41;5067062;28;20095;-74
2023/10/23 00:25:55;;;;;;;20.30;6.90;;;;;;;7.50;100.00;101161.50;5064657;28;20539;-75
2023/10/23 00:28:21;;;;;;;19.80;7.50;;;;;;;7.55;100.00;101161.59;5064747;28;20032;-75
2023/10/23 00:30:46;;;;;;;18.75;7.00;;;;;;;7.45;100.00;101160.47;5066030;28;20062;-75
2023/10/23 00:33:12;;;;;;;19.25;7.25;;;;;;;7.38;100.00;101160.31;5064868;28;20025;-75
2023/10/23 00:35:37;;;;;;;19.55;7.82;;;;;;;7.42;100.00;101164.81;5067617;28;20032;-75
2023/10/23 00:38:02;;;;;;;18.15;7.20;;;;;;;7.45;100.00;101164.88;5058724;28;20361;-74
2023/10/23 00:40:29;;;;;;;18.38;6.60;;;;;;;7.39;100.00;101170.00;5066702;28;20029;-74
2023/10/23 00:42:55;;;;;;;21.65;8.07;;;;;;;7.45;100.00;101175.38;5064678;28;20472;-75
2023/10/23 00:45:20;;;;;;;22.17;9.05;;;;;;;7.39;100.00;101162.97;5065357;28;20037;-76
2023/10/23 00:47:46;;;;;;;22.80;10.40;;;;;;;7.44;100.00;101169.25;5065982;28;20486;-76
2023/10/23 00:50:12;;;;;;;21.00;9.07;;;;;;;7.41;100.00;101160.38;5064279;28;20037;-76
2023/10/23 00:52:38;;;;;;;23.85;11.23;;;;;;;7.61;100.00;101174.88;5066885;28;20032;-75
2023/10/23 00:55:04;;;;;;;48.38;11.65;;;;;;;7.42;100.00;101177.94;5062605;28;20037;-75
2023/10/23 00:57:30;;;;;;;22.38;10.70;;;;;;;7.59;100.00;101181.84;5066617;28;20390;-75
2023/10/23 00:59:55;;;;;;;24.05;11.82;;;;;;;7.73;100.00;101173.34;5063497;28;20034;-75
2023/10/23 01:02:20;;;;;;;24.45;11.50;;;;;;;7.74;100.00;101177.78;5065276;28;20029;-75
2023/10/23 01:04:46;;;;;;;24.75;12.10;;;;;;;7.70;100.00;101184.69;5065620;28;20384;-75
2023/10/23 01:07:12;;;;;;;24.45;11.65;;;;;;;7.72;100.00;101184.72;5063802;28;20036;-75
2023/10/23 01:09:37;;;;;;;24.75;11.88;;;;;;;7.79;100.00;101184.00;5066847;28;20029;-75
2023/10/23 01:12:03;;;;;;;25.40;12.95;;;;;;;7.79;100.00;101178.75;5059138;28;20384;-75
2023/10/23 01:14:29;;;;;;;24.50;12.57;;;;;;;7.80;100.00;101196.31;5065920;28;20471;-75
2023/10/23 01:16:54;;;;;;;25.25;12.57;;;;;;;7.73;100.00;101199.69;5064342;28;20039;-75
2023/10/23 01:19:21;;;;;;;24.92;12.30;;;;;;;7.75;100.00;101193.59;5064630;28;20037;-75
2023/10/23 01:21:46;;;;;;;24.38;12.25;;;;;;;7.75;100.00;101193.59;5065347;28;20032;-75
2023/10/23 01:24:14;;;;;;;24.58;11.52;;;;;;;7.76;100.00;101198.00;5063349;28;20117;-75
2023/10/23 01:26:39;;;;;;;26.02;12.43;;;;;;;7.77;100.00;101196.25;5065924;28;20036;-75
2023/10/23 01:29:04;;;;;;;24.73;11.88;;;;;;;7.79;100.00;101198.06;5063124;28;20040;-74
2023/10/23 01:31:30;;;;;;;25.83;12.18;;;;;;;7.75;100.00;101190.09;5064532;28;20056;-75
2023/10/23 01:33:55;;;;;;;26.15;12.40;;;;;;;7.78;100.00;101184.88;5063814;28;20029;-75
2023/10/23 01:36:20;;;;;;;26.25;12.40;;;;;;;7.74;100.00;101188.31;5064512;28;20119;-75
2023/10/23 01:38:46;;;;;;;26.42;12.75;;;;;;;7.72;100.00;101187.38;5065103;28;20071;-75
2023/10/23 01:41:11;;;;;;;25.58;12.55;;;;;;;7.70;100.00;101184.69;5063257;28;20036;-75
2023/10/23 01:43:37;;;;;;;27.58;12.77;;;;;;;7.71;100.00;101188.25;5064894;28;20064;-74
2023/10/23 01:46:02;;;;;;;25.75;12.70;;;;;;;7.68;100.00;101176.78;5062572;28;20365;-74
2023/10/23 01:48:27;;;;;;;25.80;12.63;;;;;;;7.65;100.00;101179.34;5065078;28;20040;-74
2023/10/23 01:50:53;;;;;;;26.92;12.70;;;;;;;7.63;100.00;101183.69;5064006;28;20024;-75
2023/10/23 01:53:18;;;;;;;25.83;12.65;;;;;;;7.61;100.00;101189.78;5062429;28;20032;-75
2023/10/23 01:55:44;;;;;;;25.85;12.45;;;;;;;7.61;100.00;101181.88;5064862;28;20385;-74
2023/10/23 01:58:09;;;;;;;27.75;13.10;;;;;;;7.63;100.00;101183.69;5062475;28;20041;-74
2023/10/23 02:00:35;;;;;;;27.17;13.02;;;;;;;7.69;100.00;101180.31;5065709;28;20082;-73
2023/10/23 02:03:00;;;;;;;26.90;13.23;;;;;;;7.66;100.00;101175.00;5063003;28;20375;-74
2023/10/23 02:05:25;;;;;;;26.27;13.02;;;;;;;7.61;100.00;101182.75;5064442;28;20040;-74
2023/10/23 02:07:51;;;;;;;28.83;13.88;;;;;;;7.58;100.00;101179.19;5063752;28;20078;-74
2023/10/23 02:10:16;;;;;;;27.48;13.65;;;;;;;7.57;100.00;101182.66;5063274;28;20111;-74
2023/10/23 02:12:41;;;;;;;27.73;13.63;;;;;;;7.56;100.00;101188.78;5064957;28;20124;-75
2023/10/23 02:15:09;;;;;;;27.00;13.38;;;;;;;7.54;100.00;101188.75;5061947;28;20087;-75
2023/10/23 02:17:34;;;;;;;27.35;13.52;;;;;;;7.43;100.00;101195.53;5058082;28;20029;-75
2023/10/23 02:20:00;;;;;;;28.60;13.20;;;;;;;7.44;100.00;101194.66;5064734;28;20078;-75
2023/10/23 02:22:25;;;;;;;27.73;12.77;;;;;;;7.43;100.00;101190.25;5062912;28;20032;-75
2023/10/23 02:24:50;;;;;;;28.38;13.68;;;;;;;7.47;100.00;101207.88;5063431;28;20075;-75
2023/10/23 02:27:16;;;;;;;28.63;13.85;;;;;;;7.46;100.00;101211.38;5062756;28;20044;-75
2023/10/23 02:29:41;;;;;;;28.00;13.25;;;;;;;7.44;100.00;101213.06;5061975;28;20044;-75
2023/10/23 02:32:08;;;;;;;27.30;13.00;;;;;;;7.43;100.00;101214.81;5063950;28;20433;-75
2023/10/23 02:34:35;;;;;;;29.40;13.82;;;;;;;7.38;100.00;101218.19;5060359;28;20025;-75
2023/10/23 02:37:01;;;;;;;29.52;13.55;;;;;;;7.33;100.00;101212.81;5064644;28;20368;-75
2023/10/23 02:39:27;;;;;;;29.88;13.90;;;;;;;7.36;100.00;101214.66;5062466;28;20081;-75
2023/10/23 02:41:52;;;;;;;27.95;14.05;;;;;;;7.29;100.00;101222.38;5063605;28;20032;-75
2023/10/23 02:44:18;;;;;;;29.42;14.13;;;;;;;7.36;100.00;101214.66;5063531;28;20029;-75
2023/10/23 02:46:43;;;;;;;29.13;14.45;;;;;;;7.31;100.00;101211.88;5062141;28;20171;-75
2023/10/23 02:49:09;;;;;;;28.83;14.38;;;;;;;7.28;100.00;101217.06;5063543;28;20082;-75
2023/10/23 02:51:36;;;;;;;26.88;13.00;;;;;;;7.21;100.00;101209.88;5056312;28;20380;-75
2023/10/23 02:54:02;;;;;;;28.65;14.18;;;;;;;7.15;100.00;101215.91;5064607;28;20085;-75
2023/10/23 02:56:28;;;;;;;27.05;12.85;;;;;;;6.95;100.00;101216.28;5061801;28;20129;-75
2023/10/23 02:58:54;;;;;;;25.85;12.10;;;;;;;6.82;100.00;101214.22;5063426;28;20021;-75
2023/10/23 03:01:20;;;;;;;28.50;13.18;;;;;;;6.82;100.00;101216.84;5061898;28;20112;-75
2023/10/23 03:03:47;;;;;;;24.58;11.68;;;;;;;6.73;100.00;101208.72;5062322;28;20056;-75
2023/10/23 03:06:12;;;;;;;28.85;13.75;;;;;;;6.79;100.00;101212.38;5064167;28;20024;-75
2023/10/23 03:08:38;;;;;;;26.10;11.80;;;;;;;6.70;100.00;101212.16;5061268;28;20147;-75
2023/10/23 03:11:03;;;;;;;23.52;11.43;;;;;;;6.53;100.00;101209.09;5064369;28;20025;-75
2023/10/23 03:13:29;;;;;;;21.55;9.18;;;;;;;6.45;100.00;101208.88;5060605;28;20035;-75
2023/10/23 03:15:54;;;;;;;23.83;9.95;;;;;;;6.32;100.00;101212.03;5062965;28;20494;-75
2023/10/23 03:18:19;;;;;;;22.60;9.85;;;;;;;6.27;100.00;101205.75;5062917;28;20131;-75
2023/10/23 03:20:45;;;;;;;23.15;9.98;;;;;;;6.21;100.00;101209.09;5061832;28;20033;-75
2023/10/23 03:23:10;;;;;;;21.63;8.68;;;;;;;6.14;100.00;101208.88;5063557;28;20035;-75
2023/10/23 03:25:35;;;;;;;22.98;8.57;;;;;;;6.21;100.00;101211.72;5060609;28;20495;-75
2023/10/23 03:28:01;;;;;;;20.70;7.70;;;;;;;6.11;100.00;101215.81;5063941;28;20086;-74
2023/10/23 03:30:26;;;;;;;20.05;7.90;;;;;;;6.05;100.00;101205.13;5061860;28;20025;-75
2023/10/23 03:32:51;;;;;;;21.50;8.65;;;;;;;6.08;100.00;101209.59;5061384;28;20104;-75
2023/10/23 03:35:17;;;;;;;27.70;9.77;;;;;;;6.08;100.00;101214.84;5062993;28;20024;-75
2023/10/23 03:37:42;;;;;;;46.08;10.23;;;;;;;6.07;100.00;101208.72;5061109;28;20037;-74
2023/10/23 03:40:10;;;;;;;55.33;10.82;;;;;;;6.02;100.00;101214.66;5064352;28;20036;-75
2023/10/23 03:42:35;;;;;;;48.28;10.05;;;;;;;5.93;100.00;101203.03;5056664;28;20025;-75
2023/10/23 03:45:00;;;;;;;52.70;10.00;;;;;;;5.88;100.00;101212.50;5063459;28;20024;-75
2023/10/23 03:47:26;;;;;;;46.28;8.70;;;;;;;5.83;100.00;101216.72;5061954;28;20036;-75
2023/10/23 03:49:52;;;;;;;49.55;9.77;;;;;;;5.86;100.00;101221.19;5062217;28;20028;-75
2023/10/23 03:52:17;;;;;;;24.30;8.20;;;;;;;5.81;100.00;101222.75;5062938;28;20028;-75
2023/10/23 03:54:42;;;;;;;22.05;7.88;;;;;;;5.78;100.00;101215.69;5061062;28;20029;-74
2023/10/23 03:57:08;;;;;;;20.20;7.28;;;;;;;5.78;100.00;101215.69;5063925;28;20336;-75
2023/10/23 03:59:33;;;;;;;19.45;7.05;;;;;;;5.79;100.00;101220.09;5060938;28;20370;-74
2023/10/23 04:01:58;;;;;;;25.08;7.45;;;;;;;5.74;100.00;101224.31;5063635;28;20099;-74
2023/10/23 04:04:24;;;;;;;45.40;8.88;;;;;;;5.69;100.00;101228.53;5061936;28;20031;-74
2023/10/23 04:06:49;;;;;;;32.78;7.80;;;;;;;5.67;100.00;101219.72;5061857;28;20434;-74
2023/10/23 04:09:14;;;;;;;19.05;7.10;;;;;;;5.62;100.00;101226.56;5063374;28;20031;-74
2023/10/23 04:11:40;;;;;;;23.80;7.15;;;;;;;5.52;100.00;101225.38;5060375;28;20135;-75
2023/10/23 04:14:05;;;;;;;18.73;7.00;;;;;;;5.51;100.00;101224.50;5064320;28;20068;-75
2023/10/23 04:16:30;;;;;;;30.90;7.10;;;;;;;5.51;100.00;101218.38;5060783;28;20057;-74
2023/10/23 04:18:56;;;;;;;28.83;7.65;;;;;;;5.55;100.00;101218.50;5061370;28;20108;-75
2023/10/23 04:21:21;;;;;;;22.42;7.03;;;;;;;5.47;100.00;101214.75;5061173;28;20059;-75
2023/10/23 04:23:46;;;;;;;20.95;7.50;;;;;;;5.45;100.00;101219.06;5061038;28;20103;-75
2023/10/23 04:26:12;;;;;;;19.00;6.57;;;;;;;5.45;100.00;101220.81;5061912;28;20102;-75
2023/10/23 04:28:37;;;;;;;21.90;6.72;;;;;;;5.39;100.00;101221.50;5060444;28;20025;-74
2023/10/23 04:31:05;;;;;;;27.65;7.38;;;;;;;5.38;100.00;101223.22;5063657;28;20036;-74
2023/10/23 04:33:31;;;;;;;61.65;9.27;;;;;;;5.31;100.00;101217.75;5060702;28;20024;-74
2023/10/23 04:35:58;;;;;;;47.95;8.48;;;;;;;5.31;100.00;101226.47;5064997;28;20033;-74
2023/10/23 04:38:26;;;;;;;41.28;7.55;;;;;;;5.31;100.00;101225.59;5065414;28;20028;-74
2023/10/23 04:40:55;;;;;;;30.02;6.88;;;;;;;5.27;100.00;101227.25;5065278;28;20033;-74
2023/10/23 04:43:21;;;;;;;32.42;7.65;;;;;;;5.27;100.00;101229.88;5064575;28;20032;-74
2023/10/23 04:45:46;;;;;;;29.40;6.93;;;;;;;5.13;100.00;101232.03;5064503;28;20080;-75
2023/10/23 04:48:12;;;;;;;21.75;6.53;;;;;;;5.21;100.00;101233.19;5066778;28;20073;-76
2023/10/23 04:50:38;;;;;;;19.50;6.40;;;;;;;5.18;100.00;101227.81;5063785;28;20116;-76
2023/10/23 04:53:05;;;;;;;18.33;6.13;;;;;;;5.14;100.00;101230.28;5066724;28;20082;-76
2023/10/23 04:55:39;;;;;;;18.95;6.43;;;;;;;5.17;100.00;101226.06;5064062;28;20077;-76
2023/10/23 04:58:05;;;;;;;19.73;6.35;;;;;;;5.13;100.00;101218.06;5066896;28;20033;-76
2023/10/23 05:00:34;;;;;;;20.75;6.38;;;;;;;5.06;100.00;101216.94;5057504;28;20020;-76
2023/10/23 05:03:00;;;;;;;18.90;6.25;;;;;;;5.04;100.00;101214.28;5062131;28;20025;-74
2023/10/23 05:05:25;;;;;;;19.42;6.32;;;;;;;4.96;100.00;101212.25;5065764;28;20086;-72
2023/10/23 05:07:51;;;;;;;20.63;7.60;;;;;;;5.02;100.00;101215.06;5063463;28;20112;-74
2023/10/23 05:10:16;;;;;;;19.20;7.20;;;;;;;5.01;100.00;101222.03;5065139;28;20028;-76
2023/10/23 05:12:42;;;;;;;22.13;8.07;;;;;;;5.02;100.00;101230.78;5063511;28;20029;-71
2023/10/23 05:15:10;;;;;;;20.30;6.95;;;;;;;4.99;100.00;101228.94;5064553;28;20524;-71
2023/10/23 05:17:36;;;;;;;20.67;7.10;;;;;;;4.98;100.00;101223.66;5063352;28;20067;-72
2023/10/23 05:20:01;;;;;;;18.92;6.50;;;;;;;4.94;100.00;101219.19;5065353;28;20029;-73
2023/10/23 05:22:27;;;;;;;28.30;7.72;;;;;;;4.81;100.00;101223.09;5064424;28;20471;-75
2023/10/23 05:24:52;;;;;;;28.05;7.88;;;;;;;4.84;100.00;101216.22;5063902;28;20037;-73
2023/10/23 05:27:18;;;;;;;25.15;9.13;;;;;;;4.83;100.00;101214.44;5062960;28;20045;-70
2023/10/23 05:29:43;;;;;;;32.97;10.20;;;;;;;4.84;100.00;101215.34;5064762;28;20047;-74
2023/10/23 05:32:09;;;;;;;31.48;11.07;;;;;;;4.86;100.00;101211.03;5062007;28;20040;-70
2023/10/23 05:34:34;;;;;;;27.08;10.25;;;;;;;4.81;100.00;101216.13;5066112;28;20109;-74
2023/10/23 05:37:00;;;;;;;23.45;8.82;;;;;;;4.79;100.00;101209.06;5058346;28;20083;-73
2023/10/23 05:39:26;;;;;;;37.38;11.48;;;;;;;4.80;100.00;101214.34;5065589;28;20043;-75
2023/10/23 05:41:51;;;;;;;35.67;10.00;;;;;;;4.75;100.00;101213.31;5062767;28;20087;-71
2023/10/23 05:44:16;;;;;;;25.65;9.38;;;;;;;4.70;100.00;101213.16;5064927;28;20029;-75
2023/10/23 05:46:42;;;;;;;23.23;8.60;;;;;;;4.61;100.00;101214.56;5063553;28;20455;-73
2023/10/23 05:49:07;;;;;;;23.17;8.80;;;;;;;4.63;100.00;101210.25;5063557;28;20052;-72
2023/10/23 05:51:33;;;;;;;21.25;8.38;;;;;;;4.60;100.00;101215.41;5064612;28;20017;-71
2023/10/23 05:53:58;;;;;;;23.08;8.10;;;;;;;4.58;100.00;101215.34;5063122;28;20116;-74
2023/10/23 05:56:23;;;;;;;22.10;8.40;;;;;;;4.59;100.00;101225.00;5065162;28;20478;-75
2023/10/23 05:58:50;;;;;;;21.88;8.73;;;;;;;4.57;100.00;101220.53;5062040;28;20442;-73
2023/10/23 06:01:16;;;;;;;356.20;79.10;;;;;;;4.57;100.00;101223.16;5063998;28;20089;-74
2023/10/23 06:03:42;;;;;;;59.08;19.65;;;;;;;4.59;100.00;101213.59;5062067;28;20024;-72
2023/10/23 06:06:08;;;;;;;27.77;9.23;;;;;;;4.61;100.00;101218.06;5064823;28;20451;-71
2023/10/23 06:08:34;;;;;;;31.52;8.52;;;;;;;4.57;100.00;101221.41;5062852;28;20495;-71
2023/10/23 06:11:00;;;;;;;42.80;8.18;;;;;;;4.47;100.00;101209.75;5063724;28;20032;-72
2023/10/23 06:13:25;;;;;;;27.80;8.07;;;;;;;4.56;100.00;101213.50;5063614;28;20028;-71
2023/10/23 06:15:51;;;;;;;32.58;8.93;;;;;;;4.51;100.00;101219.50;5059748;28;20098;-70
2023/10/23 06:18:16;;;;;;;27.63;8.30;;;;;;;4.53;100.00;101219.53;5063520;28;20188;-74
2023/10/23 06:20:41;;;;;;;33.08;8.32;;;;;;;4.46;100.00;101221.03;5062297;28;20108;-73
2023/10/23 06:23:07;;;;;;;25.20;7.93;;;;;;;4.47;100.00;101216.69;5064944;28;20027;-76
2023/10/23 06:25:32;;;;;;;26.52;8.07;;;;;;;4.49;100.00;101218.53;5061293;28;20120;-74
2023/10/23 06:27:58;;;;;;;22.92;8.30;;;;;;;4.54;100.00;101216.97;5063576;28;20045;-74
2023/10/23 06:30:24;;;;;;;22.48;8.63;;;;;;;4.52;100.00;101215.13;5064915;28;20028;-74
2023/10/23 06:32:49;;;;;;;22.85;9.75;;;;;;;4.51;100.00;101226.44;5061905;28;20498;-73
2023/10/23 06:35:15;;;;;;;20.98;8.70;;;;;;;4.57;100.00;101226.63;5063578;28;20084;-75
2023/10/23 06:37:41;;;;;;;21.92;8.55;;;;;;;4.59;100.00;101229.31;5062916;28;20063;-74
2023/10/23 06:40:07;;;;;;;21.20;8.88;;;;;;;4.62;100.00;101218.97;5058509;28;20057;-73
2023/10/23 06:42:32;;;;;;;20.60;9.23;;;;;;;4.62;100.00;101224.22;5064017;28;20183;-77
2023/10/23 06:44:58;;;;;;;22.05;9.77;;;;;;;4.66;100.00;101224.38;5061291;28;20033;-77
2023/10/23 06:47:24;;;;;;;22.10;10.70;;;;;;;4.68;100.00;101224.41;5064457;28;20063;-77
2023/10/23 06:49:50;;;;;;;22.42;11.43;;;;;;;4.72;100.00;101218.44;5061202;28;20041;-73
2023/10/23 06:52:15;;;;;;;21.83;10.68;;;;;;;4.75;100.00;101215.94;5062072;28;20041;-77
2023/10/23 06:54:40;;;;;;;22.42;10.35;;;;;;;4.87;100.00;101221.56;5064052;28;20491;-73
2023/10/23 06:57:08;;;;;;;23.02;10.93;;;;;;;4.95;100.00;101219.22;5058492;28;20037;-71
2023/10/23 06:59:35;;;;;;;24.00;10.85;;;;;;;5.10;100.00;101225.78;5056310;28;20075;-72
2023/10/23 07:02:01;;;;;;;24.90;11.27;;;;;;;5.20;100.00;101214.78;5051137;28;20033;-70
2023/10/23 07:04:27;;;;;;;25.63;11.43;;;;;;;5.36;100.00;101216.16;5057435;28;20024;-72
2023/10/23 07:06:53;;;;;;;25.58;11.50;;;;;;;5.48;100.00;101220.91;5053070;28;20082;-71
2023/10/23 07:09:18;;;;;;;28.95;12.02;;;;;;;5.58;100.00;101222.97;5053637;28;20127;-71
2023/10/23 07:11:47;;;;;;;24.95;12.27;;;;;;;5.68;100.00;101226.75;5057330;28;20110;-74
2023/10/23 07:14:13;;;;;;;25.55;12.20;;;;;;;5.83;100.00;101219.34;5056107;28;20032;-72
2023/10/23 07:16:38;;;;;;;25.13;12.60;;;;;;;5.95;100.00;101221.44;5054414;28;20124;-72
2023/10/23 07:19:04;;;;;;;25.58;12.75;;;;;;;6.08;100.00;101220.09;5055686;28;20032;-73
2023/10/23 07:21:30;;;;;;;23.23;12.15;;;;;;;6.24;100.00;101221.41;5060593;28;20499;-73
2023/10/23 07:23:56;;;;;;;24.35;12.35;;;;;;;6.32;100.00;101213.75;5061305;28;20036;-73
2023/10/23 07:26:21;;;;;;;25.05;12.05;;;;;;;6.42;100.00;101218.41;5064106;28;20045;-75
2023/10/23 07:28:48;;;;;;;24.38;12.60;;;;;;;6.55;100.00;101217.91;5056364;28;20098;-75
2023/10/23 07:31:13;;;;;;;24.77;12.18;;;;;;;6.69;100.00;101214.75;5060652;28;20434;-77
2023/10/23 07:33:39;;;;;;;24.48;12.10;;;;;;;6.75;100.00;101220.16;5063985;28;20537;-76
2023/10/23 07:36:06;;;;;;;26.08;12.52;;;;;;;6.80;100.00;101219.44;5060867;28;20389;-77
2023/10/23 07:38:32;;;;;;;24.92;12.43;;;;;;;6.91;100.00;101224.06;5063515;28;20029;-74
2023/10/23 07:40:58;;;;;;;25.80;13.07;;;;;;;7.04;100.00;101233.16;5059820;28;20537;-77
2023/10/23 07:43:25;;;;;;;29.25;12.93;;;;;;;7.17;100.00;101237.00;5063196;28;20063;-77
2023/10/23 09:22:47;;;;;;;20.58;5.80;;;;;;;13.66;100.00;101147.00;5066083;27;1247210;-66
2023/10/23 09:25:24;;;;;;;20.17;5.88;;;;;;;13.93;100.00;101149.53;5105696;28;20028;-66
2023/10/23 09:27:50;;;;;;;20.27;5.72;;;;;;;14.01;100.00;101146.84;5106224;28;20030;-66
2023/10/23 09:30:21;;;;;;;20.23;6.18;;;;;;;14.15;100.00;101152.09;5106072;28;20028;-67
2023/10/23 09:32:49;;;;;;;19.08;5.60;;;;;;;14.34;100.00;101149.31;5098398;28;20036;-66
2023/10/23 09:35:15;;;;;;;20.42;5.90;;;;;;;14.31;100.00;101139.59;5105800;28;20078;-67
2023/10/23 09:37:40;;;;;;;18.35;5.70;;;;;;;14.27;100.00;101140.50;5109609;28;20055;-66
2023/10/23 09:40:11;;;;;;;18.48;5.38;;;;;;;14.18;100.00;101138.78;5105550;28;20032;-66
2023/10/23 09:42:37;;;;;;;19.50;5.15;;;;;;;14.01;100.00;101128.25;5105741;28;20030;-66
2023/10/23 09:45:04;;;;;;;18.52;5.20;;;;;;;14.04;100.00;101130.03;5109791;28;20111;-65
2023/10/23 09:47:30;;;;;;;19.20;5.57;;;;;;;14.08;100.00;101123.78;5109484;28;20464;-66
2023/10/23 09:49:56;;;;;;;19.33;5.25;;;;;;;13.99;100.00;101123.84;5100675;28;20036;-66
2023/10/23 09:52:24;;;;;;;18.80;5.38;;;;;;;13.80;100.00;101123.91;5098455;28;20535;-66
2023/10/23 09:54:50;;;;;;;19.98;5.45;;;;;;;13.78;100.00;101128.38;5107321;28;20016;-69
2023/10/23 09:57:20;;;;;;;19.80;5.32;;;;;;;13.86;100.00;101137.19;5091010;28;20096;-69
2023/10/23 09:59:52;;;;;;;20.23;5.63;;;;;;;13.91;100.00;101135.38;5109415;28;20016;-67
2023/10/23 10:02:20;;;;;;;17.83;5.53;;;;;;;14.13;100.00;101138.81;5100365;28;20463;-67
2023/10/23 10:04:55;;;;;;;19.50;5.30;;;;;;;14.13;100.00;101132.63;5098794;28;20402;-68
2023/10/23 10:07:56;;;;;;;20.35;5.35;;;;;;;14.22;100.00;101132.53;5100148;28;20028;-67
2023/10/23 10:10:22;;;;;;;20.38;5.88;;;;;;;14.20;100.00;101126.38;5088806;28;20043;-69
2023/10/23 10:12:49;;;;;;;20.48;5.55;;;;;;;14.16;100.00;101129.06;5104769;28;20028;-70
2023/10/23 10:15:15;;;;;;;20.50;5.70;;;;;;;14.19;100.00;101121.06;5101343;28;20028;-68
2023/10/23 10:17:42;;;;;;;20.13;6.05;;;;;;;14.15;100.00;101122.84;5104845;28;20024;-68
2023/10/23 10:20:10;;;;;;;19.77;5.93;;;;;;;14.25;100.00;101119.22;5105995;28;20387;-68
2023/10/23 10:22:38;;;;;;;20.00;6.25;;;;;;;14.07;100.00;101116.72;5095083;28;20104;-68
2023/10/23 10:25:06;;;;;;;20.30;6.20;;;;;;;14.01;100.00;101112.31;5091080;28;20029;-68
2023/10/23 10:27:32;;;;;;;20.85;6.20;;;;;;;14.19;100.00;101119.28;5086249;28;20020;-68
2023/10/23 10:30:26;;;;;;;20.10;6.00;;;;;;;14.12;100.00;101110.47;5084164;28;20032;-67
2023/10/23 10:33:00;;;;;;;20.17;6.40;;;;;;;14.16;100.00;101111.31;5093167;28;20032;-68
2023/10/23 10:35:28;;;;;;;20.20;6.40;;;;;;;14.22;100.00;101100.66;5095234;28;20020;-67
2023/10/23 10:38:00;;;;;;;20.23;6.70;;;;;;;14.27;100.00;101098.84;5069206;28;20409;-67
2023/10/23 10:40:25;;;;;;;21.35;7.07;;;;;;;14.19;100.00;101095.34;5090882;28;20028;-68
2023/10/23 10:42:50;;;;;;;21.00;6.60;;;;;;;14.17;100.00;101098.91;5095035;28;20458;-68
2023/10/23 10:45:16;;;;;;;19.90;6.30;;;;;;;14.32;100.00;101092.63;5077067;28;20028;-69
2023/10/23 10:47:46;;;;;;;20.73;6.50;;;;;;;14.37;100.00;101091.69;5094644;28;20028;-66
2023/10/23 10:50:12;;;;;;;19.95;6.47;;;;;;;14.55;100.00;101081.81;5068986;28;20032;-66
2023/10/23 10:52:40;;;;;;;20.70;6.20;;;;;;;14.63;100.00;101079.97;5084888;28;20108;-66
2023/10/23 10:55:05;;;;;;;20.92;6.22;;;;;;;14.64;100.00;101066.66;5084408;28;20028;-66
2023/10/23 10:57:31;;;;;;;29.20;7.07;;;;;;;14.88;100.00;101063.78;5083937;28;20368;-66
2023/10/23 11:00:01;;;;;;;19.13;5.55;;;;;;;15.12;100.00;101067.97;5085883;28;20039;-66
2023/10/23 11:02:26;;;;;;;20.67;5.68;;;;;;;15.20;100.00;101055.44;5064626;28;20037;-66
2023/10/23 11:04:52;;;;;;;20.25;5.45;;;;;;;15.21;100.00;101048.34;5068002;28;20073;-67
2023/10/23 11:07:22;;;;;;;20.10;5.45;;;;;;;15.13;100.00;101049.31;5090081;28;20028;-66
2023/10/23 11:09:48;;;;;;;17.65;5.45;;;;;;;15.12;100.00;101033.38;5091202;28;20047;-67
2023/10/23 11:12:14;;;;;;;23.48;5.55;;;;;;;15.29;100.00;101033.16;5068769;28;20034;-67
2023/10/23 11:14:39;;;;;;;18.02;4.93;;;;;;;15.38;100.00;101025.06;5094134;28;20040;-67
2023/10/23 11:17:05;;;;;;;19.50;5.13;;;;;;;15.44;100.00;101021.44;5093662;28;20054;-66
2023/10/23 11:19:31;;;;;;;21.75;5.32;;;;;;;15.34;100.00;101024.22;5094452;28;20031;-66
2023/10/23 11:22:09;;;;;;;21.08;5.57;;;;;;;15.33;100.00;101019.81;5090308;28;20036;-68
2023/10/23 11:24:34;;;;;;;20.00;5.35;;;;;;;15.39;100.00;101017.94;5087579;28;20463;-68
2023/10/23 11:27:00;;;;;;;19.92;5.18;;;;;;;15.61;100.00;101019.44;5083901;28;20039;-67
2023/10/23 11:29:25;;;;;;;18.25;5.07;;;;;;;15.68;100.00;101006.88;5066148;28;20032;-67
2023/10/23 11:31:52;;;;;;;20.80;4.93;;;;;;;15.63;100.00;101008.75;5084214;28;20081;-65
2023/10/23 11:34:18;;;;;;;19.98;5.60;;;;;;;15.60;100.00;101000.81;5082411;28;20082;-65
2023/10/23 11:36:45;;;;;;;20.00;5.10;;;;;;;15.61;100.00;100984.81;5094110;28;20027;-65
2023/10/23 11:39:13;;;;;;;21.15;5.25;;;;;;;15.52;100.00;100979.59;5093825;28;20437;-64
2023/10/23 11:41:39;;;;;;;20.58;5.13;;;;;;;15.47;100.00;100982.31;5070763;28;20032;-67
2023/10/23 11:44:05;;;;;;;17.90;5.03;;;;;;;15.35;100.00;100979.84;5089725;28;20434;-67
2023/10/23 11:46:30;;;;;;;18.80;4.70;;;;;;;15.22;100.00;100971.13;5090043;28;20039;-65
2023/10/23 11:48:56;;;;;;;20.15;5.40;;;;;;;15.24;100.00;100976.41;5088735;28;20029;-66
2023/10/23 11:51:21;;;;;;;21.05;5.35;;;;;;;15.21;100.00;100966.69;5089210;28;20111;-67
2023/10/23 11:53:47;;;;;;;19.92;5.30;;;;;;;15.20;100.00;100966.72;5087324;28;20024;-68
2023/10/23 11:56:12;;;;;;;20.98;5.70;;;;;;;15.13;100.00;100958.81;5091768;28;20359;-66
2023/10/23 11:58:38;;;;;;;19.35;5.82;;;;;;;15.13;100.00;100957.91;5091291;28;20600;-67
2023/10/23 12:01:04;;;;;;;19.92;5.75;;;;;;;15.19;100.00;100947.19;5093814;28;20036;-66
2023/10/23 12:03:30;;;;;;;21.90;5.80;;;;;;;15.13;100.00;100953.47;5093308;28;20035;-66
2023/10/23 12:05:56;;;;;;;21.00;5.78;;;;;;;14.97;100.00;100942.13;5089044;28;20024;-66
2023/10/23 12:08:21;;;;;;;21.90;6.20;;;;;;;15.05;100.00;100938.50;5093134;28;20077;-67
2023/10/23 12:10:46;;;;;;;21.65;6.28;;;;;;;15.16;100.00;100933.94;5093816;28;20035;-67
2023/10/23 12:13:11;;;;;;;21.58;6.22;;;;;;;15.08;100.00;100938.47;5093233;28;20055;-67
2023/10/23 12:15:37;;;;;;;21.25;5.93;;;;;;;14.90;100.00;100929.81;5093259;28;20532;-67
2023/10/23 12:18:05;;;;;;;21.17;6.82;;;;;;;14.69;100.00;100930.06;5093490;28;20386;-66
2023/10/23 12:20:31;;;;;;;22.88;6.53;;;;;;;14.67;100.00;100927.41;5093067;28;20490;-66
2023/10/23 12:22:57;;;;;;;20.95;6.60;;;;;;;14.59;100.00;100919.50;5092973;28;20113;-66
2023/10/23 12:25:22;;;;;;;20.73;6.80;;;;;;;14.56;100.00;100918.63;5075302;28;20020;-66
2023/10/23 12:27:48;;;;;;;22.05;6.72;;;;;;;14.64;100.00;100908.81;5093081;28;20046;-67
2023/10/23 12:30:15;;;;;;;22.02;7.13;;;;;;;14.65;100.00;100910.59;5093021;28;20028;-66
2023/10/23 12:32:40;;;;;;;20.20;6.47;;;;;;;14.51;100.00;100905.38;5093238;28;20028;-66
2023/10/23 12:35:07;;;;;;;21.95;7.03;;;;;;;14.35;100.00;100895.81;5093007;28;20042;-66
2023/10/23 12:37:34;;;;;;;21.50;6.63;;;;;;;14.36;100.00;100901.13;5092939;28;20028;-66
2023/10/23 12:40:08;;;;;;;21.52;7.45;;;;;;;14.41;100.00;100896.63;5093093;28;20024;-67
2023/10/23 12:42:33;;;;;;;21.45;7.30;;;;;;;14.51;100.00;100896.53;5089821;28;20042;-66
2023/10/23 12:44:59;;;;;;;20.75;7.22;;;;;;;14.55;100.00;100895.59;5092645;28;20537;-67